logo dgac
Miércoles 19 de Junio del 2024
Buscar por aerodromo o helipuerto
Ingrese nombre de aeródromo, localidad o designador OACI:

Aeródromo: Cabo 1° Juan Román (PUB) (SCAS)

Ubicación: Puerto Aisén, XI Región, Chile (45º 23' 57'' S, 72º 40' 12'' W) Ver ubicación en el mapa

Pistas

Luces
Orientación Dimensión Pendiente Superficie Resistencia APCH THR RWY PAPI
07/25 1300 x 23 ASPH PCN 25 F/A/Y/U No No
Horas de operación HJ
Elevación 10 m / 32 ft
Otra Información Adm : DGAC.
Uso : PUB
TEL : 672332599 CEL +56942884444
Ubicado a 500 m al Este de Puerto Aysén
email : aro.aysen@dgac.gob.cl

Otra información ver AIP-Chile Volumen I AD 3.9-15.8-P
CCCM/FCCV Descargar CCCM/FCCV
andera de Chile
Mapa de Cabo 1° Juan Román (PUB) (SCAS)

Último METAR

METAR SCAS 182100Z 00000KT 9999 FEW020 OVC040 03/00 Q1009

Último TAF

No hay tafs registrados para este aeródromo

Últimas fotos cámaras

Imagen aerodromo Cabo 1° Juan Román (PUB) (SCAS) Este tomada el 19-06-2024 11:46:16 Imagen aerodromo Cabo 1° Juan Román (PUB) (SCAS) Oeste tomada el 19-06-2024 11:41:04

Último NOTAM

C1837/24 NOTAMN Q)SCTZ/QSFXX/IV/B/A/000/999/4524S07240W005 A)SCAS B)2404251415 C)PERM E)AGREGA NR CEL. SER. TWR AFIS, REF AIP CHILE VOLUMEN I AD 3.9-15-8, DONDE DICE DGAC PUB, TEL (67)2332599, A CONTINUACION INSERTAR NR CEL TWR AFIS +56942884444